首页
METAR-TAF:

METAR-TAF

机场 :

普爾科沃機場

圣彼得堡, 俄罗斯

纬度: 59-58N, 经度: 030-18E, 海拔: 4米

当前天气观测

该预报发布于18分钟前的17:30 UTC
风速6节,风向西转西北,在西北转西北之间变化
温度 17°C
湿度 55%
气压 1011 hPa
能见度10公里或以上
多云层高于4600英尺

METAR: ULLI 231730Z 29003MPS 270V330 9999 BKN046 17/08 Q1011 R88/090060 NOSIG

时间: 20:48 (17:48 UTC)

预报

该预报发布于51分钟前的16:57 UTC
预报有效从23日的 18点(UTC)到 24日的 18点(UTC)
风速6节,风向北转西北
能见度10公里或以上
多云层高于3000英尺
成为
从 24日的 03点(UTC)到 24日的 05点(UTC)
风速6节,风向北转东北,有时为16节阵风
短暂存在
从 24日的 03点(UTC)到 24日的 18点(UTC)
风速12节,风向东转东北,有时为23节阵风
能見度: 4000
多云层高于1500英尺
多云层高于2500英尺, 积雨云.
小阵雨

TAF: ULLI 231657Z 2318/2418 33003MPS 9999 BKN030 BECMG 2403/2405 02003G08MPS TEMPO 2403/2418 06006G12MPS 4000 -SHRA BKN015 BKN025CB

超过4000个机场的气象观测和天气预报(METAR&TAF报告)。

可查询的气象台以黄色和红色小点在地图上表示。

将鼠标移到小点上方,可查看气象台名称。

然后点击查看天气观测和预报。

如需切换地图:点击带黑十字的绿色按钮放大地图;点击带横线的绿色按钮缩小地图;或者点击绿色箭头查看邻近地区的地图。


METAR-TAF: